sensor_id;sensor_type;location;lat;lon;timestamp;P1;durP1;ratioP1;P2;durP2;ratioP2
71941;SDS011;59997;53.300;-6.260;2022-08-21T00:02:16;7.75;;;0.80;;
71941;SDS011;59997;53.300;-6.260;2022-08-21T00:04:45;12.18;;;1.63;;
71941;SDS011;59997;53.300;-6.260;2022-08-21T00:07:11;9.55;;;0.90;;
71941;SDS011;59997;53.300;-6.260;2022-08-21T00:09:36;11.07;;;0.90;;
71941;SDS011;59997;53.300;-6.260;2022-08-21T00:12:03;10.53;;;1.10;;
71941;SDS011;59997;53.300;-6.260;2022-08-21T00:14:30;14.13;;;1.10;;
71941;SDS011;59997;53.300;-6.260;2022-08-21T00:16:56;9.50;;;0.95;;
71941;SDS011;59997;53.300;-6.260;2022-08-21T00:19:22;9.50;;;1.10;;
71941;SDS011;59997;53.300;-6.260;2022-08-21T00:21:51;11.65;;;1.00;;
71941;SDS011;59997;53.300;-6.260;2022-08-21T00:24:18;10.40;;;0.80;;
71941;SDS011;59997;53.300;-6.260;2022-08-21T00:26:47;5.85;;;0.70;;
71941;SDS011;59997;53.300;-6.260;2022-08-21T00:29:14;9.50;;;1.20;;
71941;SDS011;59997;53.300;-6.260;2022-08-21T00:31:41;12.90;;;1.23;;
71941;SDS011;59997;53.300;-6.260;2022-08-21T00:34:07;9.60;;;1.00;;
71941;SDS011;59997;53.300;-6.260;2022-08-21T00:36:35;10.15;;;1.20;;
71941;SDS011;59997;53.300;-6.260;2022-08-21T00:39:00;9.15;;;1.15;;
71941;SDS011;59997;53.300;-6.260;2022-08-21T00:41:28;10.17;;;0.70;;
71941;SDS011;59997;53.300;-6.260;2022-08-21T00:43:53;11.25;;;1.08;;
71941;SDS011;59997;53.300;-6.260;2022-08-21T00:46:20;9.15;;;1.10;;
71941;SDS011;59997;53.300;-6.260;2022-08-21T00:48:45;12.60;;;1.48;;
71941;SDS011;59997;53.300;-6.260;2022-08-21T00:51:17;7.82;;;1.00;;
71941;SDS011;59997;53.300;-6.260;2022-08-21T00:53:59;10.93;;;1.20;;
71941;SDS011;59997;53.300;-6.260;2022-08-21T00:56:27;9.10;;;1.30;;
71941;SDS011;59997;53.300;-6.260;2022-08-21T00:58:54;10.35;;;1.33;;
71941;SDS011;59997;53.300;-6.260;2022-08-21T01:01:22;10.27;;;1.00;;
71941;SDS011;59997;53.300;-6.260;2022-08-21T01:03:48;10.55;;;1.10;;
71941;SDS011;59997;53.300;-6.260;2022-08-21T01:06:15;8.27;;;0.97;;
71941;SDS011;59997;53.300;-6.260;2022-08-21T01:08:41;6.68;;;0.80;;
71941;SDS011;59997;53.300;-6.260;2022-08-21T01:11:07;11.65;;;1.40;;
71941;SDS011;59997;53.300;-6.260;2022-08-21T01:13:34;13.82;;;1.42;;
71941;SDS011;59997;53.300;-6.260;2022-08-21T01:16:02;8.87;;;1.07;;
71941;SDS011;59997;53.300;-6.260;2022-08-21T01:18:31;12.55;;;1.40;;
71941;SDS011;59997;53.300;-6.260;2022-08-21T01:21:09;11.98;;;1.13;;
71941;SDS011;59997;53.300;-6.260;2022-08-21T01:23:38;12.98;;;1.50;;
71941;SDS011;59997;53.300;-6.260;2022-08-21T01:26:07;10.07;;;1.00;;
71941;SDS011;59997;53.300;-6.260;2022-08-21T01:28:35;8.50;;;0.90;;
71941;SDS011;59997;53.300;-6.260;2022-08-21T01:31:05;11.07;;;1.15;;
71941;SDS011;59997;53.300;-6.260;2022-08-21T01:33:34;7.35;;;0.90;;
71941;SDS011;59997;53.300;-6.260;2022-08-21T01:36:00;9.55;;;1.17;;
71941;SDS011;59997;53.300;-6.260;2022-08-21T01:38:26;8.97;;;0.87;;
71941;SDS011;59997;53.300;-6.260;2022-08-21T01:40:51;8.20;;;0.93;;
71941;SDS011;59997;53.300;-6.260;2022-08-21T01:43:18;11.07;;;1.27;;
71941;SDS011;59997;53.300;-6.260;2022-08-21T01:45:44;9.83;;;1.00;;
71941;SDS011;59997;53.300;-6.260;2022-08-21T01:48:09;9.98;;;1.25;;
71941;SDS011;59997;53.300;-6.260;2022-08-21T01:50:35;11.40;;;2.00;;
71941;SDS011;59997;53.300;-6.260;2022-08-21T01:53:02;12.65;;;1.65;;
71941;SDS011;59997;53.300;-6.260;2022-08-21T01:55:27;11.73;;;1.23;;
71941;SDS011;59997;53.300;-6.260;2022-08-21T01:57:54;7.90;;;0.93;;
71941;SDS011;59997;53.300;-6.260;2022-08-21T02:00:20;9.37;;;1.10;;
71941;SDS011;59997;53.300;-6.260;2022-08-21T02:02:49;10.15;;;1.40;;
71941;SDS011;59997;53.300;-6.260;2022-08-21T02:05:18;11.55;;;1.13;;
71941;SDS011;59997;53.300;-6.260;2022-08-21T02:07:46;11.68;;;1.38;;
71941;SDS011;59997;53.300;-6.260;2022-08-21T02:10:18;9.50;;;1.13;;
71941;SDS011;59997;53.300;-6.260;2022-08-21T02:12:48;12.63;;;1.30;;
71941;SDS011;59997;53.300;-6.260;2022-08-21T02:15:14;11.68;;;1.25;;
71941;SDS011;59997;53.300;-6.260;2022-08-21T02:17:46;11.98;;;1.30;;
71941;SDS011;59997;53.300;-6.260;2022-08-21T02:20:24;13.18;;;1.10;;
71941;SDS011;59997;53.300;-6.260;2022-08-21T02:22:52;10.73;;;1.20;;
71941;SDS011;59997;53.300;-6.260;2022-08-21T02:25:20;10.57;;;1.27;;
71941;SDS011;59997;53.300;-6.260;2022-08-21T02:27:47;9.35;;;1.20;;
71941;SDS011;59997;53.300;-6.260;2022-08-21T02:30:15;12.63;;;1.38;;
71941;SDS011;59997;53.300;-6.260;2022-08-21T02:32:43;10.23;;;1.08;;
71941;SDS011;59997;53.300;-6.260;2022-08-21T02:35:10;12.90;;;1.20;;
71941;SDS011;59997;53.300;-6.260;2022-08-21T02:37:43;11.00;;;1.50;;
71941;SDS011;59997;53.300;-6.260;2022-08-21T02:40:11;13.82;;;1.77;;
71941;SDS011;59997;53.300;-6.260;2022-08-21T02:42:37;10.87;;;1.27;;
71941;SDS011;59997;53.300;-6.260;2022-08-21T02:45:05;14.30;;;2.45;;
71941;SDS011;59997;53.300;-6.260;2022-08-21T02:47:32;13.32;;;1.30;;
71941;SDS011;59997;53.300;-6.260;2022-08-21T02:49:57;8.30;;;0.93;;
71941;SDS011;59997;53.300;-6.260;2022-08-21T02:52:23;9.70;;;0.90;;
71941;SDS011;59997;53.300;-6.260;2022-08-21T02:54:49;9.68;;;1.30;;
71941;SDS011;59997;53.300;-6.260;2022-08-21T02:57:16;11.50;;;1.33;;
71941;SDS011;59997;53.300;-6.260;2022-08-21T02:59:41;10.25;;;1.45;;
71941;SDS011;59997;53.300;-6.260;2022-08-21T03:02:07;13.03;;;1.50;;
71941;SDS011;59997;53.300;-6.260;2022-08-21T03:04:32;9.17;;;1.23;;
71941;SDS011;59997;53.300;-6.260;2022-08-21T03:07:01;11.93;;;1.30;;
71941;SDS011;59997;53.300;-6.260;2022-08-21T03:09:26;9.82;;;1.30;;
71941;SDS011;59997;53.300;-6.260;2022-08-21T03:11:52;13.60;;;1.53;;
71941;SDS011;59997;53.300;-6.260;2022-08-21T03:14:18;10.40;;;1.00;;
71941;SDS011;59997;53.300;-6.260;2022-08-21T03:16:44;19.60;;;1.83;;
71941;SDS011;59997;53.300;-6.260;2022-08-21T03:19:11;9.80;;;1.15;;
71941;SDS011;59997;53.300;-6.260;2022-08-21T03:21:37;10.60;;;1.38;;
71941;SDS011;59997;53.300;-6.260;2022-08-21T03:24:04;9.10;;;0.90;;
71941;SDS011;59997;53.300;-6.260;2022-08-21T03:26:29;13.90;;;1.40;;
71941;SDS011;59997;53.300;-6.260;2022-08-21T03:28:56;9.05;;;1.30;;
71941;SDS011;59997;53.300;-6.260;2022-08-21T03:31:23;8.45;;;1.20;;
71941;SDS011;59997;53.300;-6.260;2022-08-21T03:33:53;13.93;;;1.47;;
71941;SDS011;59997;53.300;-6.260;2022-08-21T03:36:20;9.25;;;1.08;;
71941;SDS011;59997;53.300;-6.260;2022-08-21T03:38:48;10.20;;;1.80;;
71941;SDS011;59997;53.300;-6.260;2022-08-21T03:41:14;14.70;;;1.13;;
71941;SDS011;59997;53.300;-6.260;2022-08-21T03:43:40;7.87;;;1.07;;
71941;SDS011;59997;53.300;-6.260;2022-08-21T03:46:05;19.38;;;1.80;;
71941;SDS011;59997;53.300;-6.260;2022-08-21T03:48:32;9.93;;;1.33;;
71941;SDS011;59997;53.300;-6.260;2022-08-21T03:51:01;10.35;;;1.33;;
71941;SDS011;59997;53.300;-6.260;2022-08-21T03:53:27;8.52;;;1.02;;
71941;SDS011;59997;53.300;-6.260;2022-08-21T03:55:53;10.50;;;1.20;;
71941;SDS011;59997;53.300;-6.260;2022-08-21T03:58:21;10.57;;;1.52;;
71941;SDS011;59997;53.300;-6.260;2022-08-21T04:00:49;12.07;;;1.07;;
71941;SDS011;59997;53.300;-6.260;2022-08-21T04:03:17;13.38;;;0.90;;
71941;SDS011;59997;53.300;-6.260;2022-08-21T04:05:44;5.90;;;0.98;;
71941;SDS011;59997;53.300;-6.260;2022-08-21T04:08:11;13.65;;;1.33;;
71941;SDS011;59997;53.300;-6.260;2022-08-21T04:10:39;13.00;;;1.27;;
71941;SDS011;59997;53.300;-6.260;2022-08-21T04:13:06;12.60;;;1.23;;
71941;SDS011;59997;53.300;-6.260;2022-08-21T04:15:33;9.00;;;0.90;;
71941;SDS011;59997;53.300;-6.260;2022-08-21T04:17:59;6.97;;;1.02;;
71941;SDS011;59997;53.300;-6.260;2022-08-21T04:20:26;8.45;;;1.08;;
71941;SDS011;59997;53.300;-6.260;2022-08-21T04:22:51;9.25;;;1.42;;
71941;SDS011;59997;53.300;-6.260;2022-08-21T04:25:18;10.45;;;1.52;;
71941;SDS011;59997;53.300;-6.260;2022-08-21T04:27:47;13.32;;;1.15;;
71941;SDS011;59997;53.300;-6.260;2022-08-21T04:30:13;8.80;;;1.57;;
71941;SDS011;59997;53.300;-6.260;2022-08-21T04:32:42;12.23;;;1.10;;
71941;SDS011;59997;53.300;-6.260;2022-08-21T04:35:13;8.77;;;1.00;;
71941;SDS011;59997;53.300;-6.260;2022-08-21T04:37:41;9.88;;;1.48;;
71941;SDS011;59997;53.300;-6.260;2022-08-21T04:40:06;9.27;;;0.93;;
71941;SDS011;59997;53.300;-6.260;2022-08-21T04:42:40;6.80;;;1.08;;
71941;SDS011;59997;53.300;-6.260;2022-08-21T04:45:21;9.27;;;1.10;;
71941;SDS011;59997;53.300;-6.260;2022-08-21T04:47:50;14.27;;;1.45;;
71941;SDS011;59997;53.300;-6.260;2022-08-21T04:50:16;11.18;;;1.63;;
71941;SDS011;59997;53.300;-6.260;2022-08-21T04:52:42;9.33;;;1.00;;
71941;SDS011;59997;53.300;-6.260;2022-08-21T04:55:08;13.85;;;0.90;;
71941;SDS011;59997;53.300;-6.260;2022-08-21T04:57:34;10.95;;;1.02;;
71941;SDS011;59997;53.300;-6.260;2022-08-21T05:00:03;11.50;;;1.20;;
71941;SDS011;59997;53.300;-6.260;2022-08-21T05:02:32;9.70;;;1.07;;
71941;SDS011;59997;53.300;-6.260;2022-08-21T05:04:58;8.57;;;1.25;;
71941;SDS011;59997;53.300;-6.260;2022-08-21T05:07:26;7.60;;;1.20;;
71941;SDS011;59997;53.300;-6.260;2022-08-21T05:09:55;10.63;;;1.20;;
71941;SDS011;59997;53.300;-6.260;2022-08-21T05:12:21;13.33;;;1.33;;
71941;SDS011;59997;53.300;-6.260;2022-08-21T05:14:47;9.45;;;0.80;;
71941;SDS011;59997;53.300;-6.260;2022-08-21T05:17:14;16.13;;;1.15;;
71941;SDS011;59997;53.300;-6.260;2022-08-21T05:19:39;7.80;;;1.00;;
71941;SDS011;59997;53.300;-6.260;2022-08-21T05:22:05;8.67;;;0.87;;
71941;SDS011;59997;53.300;-6.260;2022-08-21T05:24:31;9.55;;;0.98;;
71941;SDS011;59997;53.300;-6.260;2022-08-21T05:26:59;10.80;;;1.27;;
71941;SDS011;59997;53.300;-6.260;2022-08-21T05:29:25;12.43;;;1.10;;
71941;SDS011;59997;53.300;-6.260;2022-08-21T05:31:51;13.07;;;0.80;;
71941;SDS011;59997;53.300;-6.260;2022-08-21T05:34:18;14.93;;;1.33;;
71941;SDS011;59997;53.300;-6.260;2022-08-21T05:36:45;12.55;;;0.98;;
71941;SDS011;59997;53.300;-6.260;2022-08-21T05:39:11;14.13;;;1.20;;
71941;SDS011;59997;53.300;-6.260;2022-08-21T05:41:37;9.18;;;0.77;;
71941;SDS011;59997;53.300;-6.260;2022-08-21T05:44:03;13.07;;;1.50;;
71941;SDS011;59997;53.300;-6.260;2022-08-21T05:46:29;11.45;;;1.20;;
71941;SDS011;59997;53.300;-6.260;2022-08-21T05:48:56;9.95;;;1.05;;
71941;SDS011;59997;53.300;-6.260;2022-08-21T05:51:22;11.93;;;1.15;;
71941;SDS011;59997;53.300;-6.260;2022-08-21T05:53:48;13.68;;;1.08;;
71941;SDS011;59997;53.300;-6.260;2022-08-21T05:56:14;12.57;;;1.40;;
71941;SDS011;59997;53.300;-6.260;2022-08-21T05:58:40;9.88;;;1.38;;
71941;SDS011;59997;53.300;-6.260;2022-08-21T06:01:07;11.68;;;1.30;;
71941;SDS011;59997;53.300;-6.260;2022-08-21T06:03:35;9.32;;;1.20;;
71941;SDS011;59997;53.300;-6.260;2022-08-21T06:06:03;13.43;;;1.53;;
71941;SDS011;59997;53.300;-6.260;2022-08-21T06:08:30;14.23;;;1.67;;
71941;SDS011;59997;53.300;-6.260;2022-08-21T06:10:57;9.77;;;1.20;;
71941;SDS011;59997;53.300;-6.260;2022-08-21T06:13:25;14.05;;;1.52;;
71941;SDS011;59997;53.300;-6.260;2022-08-21T06:16:00;9.03;;;0.90;;
71941;SDS011;59997;53.300;-6.260;2022-08-21T06:18:35;8.85;;;1.00;;
71941;SDS011;59997;53.300;-6.260;2022-08-21T06:21:02;14.05;;;1.10;;
71941;SDS011;59997;53.300;-6.260;2022-08-21T06:23:28;8.90;;;1.35;;
71941;SDS011;59997;53.300;-6.260;2022-08-21T06:25:54;9.37;;;1.10;;
71941;SDS011;59997;53.300;-6.260;2022-08-21T06:28:21;8.93;;;1.13;;
71941;SDS011;59997;53.300;-6.260;2022-08-21T06:30:47;9.00;;;1.00;;
71941;SDS011;59997;53.300;-6.260;2022-08-21T06:33:13;9.38;;;0.82;;
71941;SDS011;59997;53.300;-6.260;2022-08-21T06:35:39;8.82;;;1.13;;
71941;SDS011;59997;53.300;-6.260;2022-08-21T06:38:05;15.73;;;2.10;;
71941;SDS011;59997;53.300;-6.260;2022-08-21T06:40:31;9.40;;;1.00;;
71941;SDS011;59997;53.300;-6.260;2022-08-21T06:42:58;10.15;;;1.15;;
71941;SDS011;59997;53.300;-6.260;2022-08-21T06:45:31;11.90;;;1.20;;
71941;SDS011;59997;53.300;-6.260;2022-08-21T06:47:58;7.60;;;1.10;;
71941;SDS011;59997;53.300;-6.260;2022-08-21T06:50:24;8.80;;;0.98;;
71941;SDS011;59997;53.300;-6.260;2022-08-21T06:52:57;8.80;;;0.83;;
71941;SDS011;59997;53.300;-6.260;2022-08-21T06:55:24;11.30;;;0.90;;
71941;SDS011;59997;53.300;-6.260;2022-08-21T06:57:50;5.55;;;0.55;;
71941;SDS011;59997;53.300;-6.260;2022-08-21T07:00:16;10.87;;;0.93;;
71941;SDS011;59997;53.300;-6.260;2022-08-21T07:02:42;10.68;;;0.70;;
71941;SDS011;59997;53.300;-6.260;2022-08-21T07:05:08;7.07;;;0.80;;
71941;SDS011;59997;53.300;-6.260;2022-08-21T07:07:34;9.60;;;0.98;;
71941;SDS011;59997;53.300;-6.260;2022-08-21T07:09:59;10.32;;;1.25;;
71941;SDS011;59997;53.300;-6.260;2022-08-21T07:12:25;8.03;;;0.70;;
71941;SDS011;59997;53.300;-6.260;2022-08-21T07:14:52;8.77;;;1.00;;
71941;SDS011;59997;53.300;-6.260;2022-08-21T07:17:17;5.60;;;0.70;;
71941;SDS011;59997;53.300;-6.260;2022-08-21T07:19:43;8.23;;;0.77;;
71941;SDS011;59997;53.300;-6.260;2022-08-21T07:22:08;10.83;;;0.87;;
71941;SDS011;59997;53.300;-6.260;2022-08-21T07:24:35;8.65;;;1.00;;
71941;SDS011;59997;53.300;-6.260;2022-08-21T07:27:00;12.00;;;1.20;;
71941;SDS011;59997;53.300;-6.260;2022-08-21T07:29:28;7.60;;;0.93;;
71941;SDS011;59997;53.300;-6.260;2022-08-21T07:31:55;7.47;;;0.98;;
71941;SDS011;59997;53.300;-6.260;2022-08-21T07:34:22;9.18;;;0.80;;
71941;SDS011;59997;53.300;-6.260;2022-08-21T07:36:47;8.98;;;0.90;;
71941;SDS011;59997;53.300;-6.260;2022-08-21T07:39:13;8.90;;;0.80;;
71941;SDS011;59997;53.300;-6.260;2022-08-21T07:41:39;5.63;;;0.90;;
71941;SDS011;59997;53.300;-6.260;2022-08-21T07:44:05;6.35;;;0.70;;
71941;SDS011;59997;53.300;-6.260;2022-08-21T07:46:30;5.45;;;0.70;;
71941;SDS011;59997;53.300;-6.260;2022-08-21T07:48:56;7.47;;;1.03;;
71941;SDS011;59997;53.300;-6.260;2022-08-21T07:51:24;9.30;;;0.90;;
71941;SDS011;59997;53.300;-6.260;2022-08-21T07:53:53;12.00;;;0.70;;
71941;SDS011;59997;53.300;-6.260;2022-08-21T07:56:20;14.73;;;1.45;;
71941;SDS011;59997;53.300;-6.260;2022-08-21T07:58:46;12.05;;;1.25;;
71941;SDS011;59997;53.300;-6.260;2022-08-21T08:01:13;8.30;;;1.47;;
71941;SDS011;59997;53.300;-6.260;2022-08-21T08:03:40;8.82;;;1.05;;
71941;SDS011;59997;53.300;-6.260;2022-08-21T08:06:07;11.50;;;1.60;;
71941;SDS011;59997;53.300;-6.260;2022-08-21T08:08:40;9.75;;;0.85;;
71941;SDS011;59997;53.300;-6.260;2022-08-21T08:11:08;7.55;;;0.90;;
71941;SDS011;59997;53.300;-6.260;2022-08-21T08:13:43;8.00;;;1.10;;
71941;SDS011;59997;53.300;-6.260;2022-08-21T08:16:10;8.20;;;1.42;;
71941;SDS011;59997;53.300;-6.260;2022-08-21T08:18:37;8.43;;;0.90;;
71941;SDS011;59997;53.300;-6.260;2022-08-21T08:21:03;8.73;;;1.00;;
71941;SDS011;59997;53.300;-6.260;2022-08-21T08:23:30;7.30;;;1.30;;
71941;SDS011;59997;53.300;-6.260;2022-08-21T08:25:57;7.87;;;1.20;;
71941;SDS011;59997;53.300;-6.260;2022-08-21T08:28:24;6.82;;;1.10;;
71941;SDS011;59997;53.300;-6.260;2022-08-21T08:30:50;8.38;;;1.10;;
71941;SDS011;59997;53.300;-6.260;2022-08-21T08:33:16;5.88;;;0.70;;
71941;SDS011;59997;53.300;-6.260;2022-08-21T08:35:44;8.05;;;1.70;;
71941;SDS011;59997;53.300;-6.260;2022-08-21T08:38:13;8.10;;;1.50;;
71941;SDS011;59997;53.300;-6.260;2022-08-21T08:43:11;8.57;;;0.90;;
71941;SDS011;59997;53.300;-6.260;2022-08-21T08:45:39;7.60;;;1.00;;
71941;SDS011;59997;53.300;-6.260;2022-08-21T08:48:07;6.03;;;0.80;;
71941;SDS011;59997;53.300;-6.260;2022-08-21T08:53:29;6.75;;;0.93;;
71941;SDS011;59997;53.300;-6.260;2022-08-21T08:55:58;6.50;;;1.00;;
71941;SDS011;59997;53.300;-6.260;2022-08-21T08:58:31;8.40;;;1.00;;
71941;SDS011;59997;53.300;-6.260;2022-08-21T09:01:00;8.77;;;1.20;;
71941;SDS011;59997;53.300;-6.260;2022-08-21T09:03:30;7.70;;;1.38;;
71941;SDS011;59997;53.300;-6.260;2022-08-21T09:16:58;6.63;;;1.33;;
71941;SDS011;59997;53.300;-6.260;2022-08-21T09:23:31;6.40;;;1.77;;
71941;SDS011;59997;53.300;-6.260;2022-08-21T09:26:07;7.60;;;1.50;;
71941;SDS011;59997;53.300;-6.260;2022-08-21T09:28:39;7.15;;;3.15;;
71941;SDS011;59997;53.300;-6.260;2022-08-21T09:31:07;7.70;;;1.50;;
71941;SDS011;59997;53.300;-6.260;2022-08-21T09:33:37;4.75;;;1.20;;
71941;SDS011;59997;53.300;-6.260;2022-08-21T09:36:03;5.80;;;1.73;;
71941;SDS011;59997;53.300;-6.260;2022-08-21T09:38:33;9.48;;;1.60;;
71941;SDS011;59997;53.300;-6.260;2022-08-21T09:41:07;7.88;;;1.70;;
71941;SDS011;59997;53.300;-6.260;2022-08-21T09:43:35;5.72;;;1.05;;
71941;SDS011;59997;53.300;-6.260;2022-08-21T09:46:19;6.45;;;1.60;;
71941;SDS011;59997;53.300;-6.260;2022-08-21T09:48:48;5.93;;;1.20;;
71941;SDS011;59997;53.300;-6.260;2022-08-21T09:51:16;6.78;;;1.50;;
71941;SDS011;59997;53.300;-6.260;2022-08-21T09:53:46;7.38;;;1.73;;
71941;SDS011;59997;53.300;-6.260;2022-08-21T09:59:12;5.28;;;1.50;;
71941;SDS011;59997;53.300;-6.260;2022-08-21T10:01:53;5.07;;;1.47;;
71941;SDS011;59997;53.300;-6.260;2022-08-21T10:04:28;7.50;;;1.75;;
71941;SDS011;59997;53.300;-6.260;2022-08-21T10:07:06;5.72;;;1.30;;
71941;SDS011;59997;53.300;-6.260;2022-08-21T10:09:32;6.72;;;1.50;;
71941;SDS011;59997;53.300;-6.260;2022-08-21T10:14:52;5.72;;;1.40;;
71941;SDS011;59997;53.300;-6.260;2022-08-21T10:17:37;4.95;;;1.60;;
71941;SDS011;59997;53.300;-6.260;2022-08-21T10:20:52;5.43;;;1.77;;
71941;SDS011;59997;53.300;-6.260;2022-08-21T10:23:29;5.27;;;1.70;;
71941;SDS011;59997;53.300;-6.260;2022-08-21T10:32:03;6.10;;;1.83;;
71941;SDS011;59997;53.300;-6.260;2022-08-21T10:37:44;5.97;;;1.30;;
71941;SDS011;59997;53.300;-6.260;2022-08-21T10:48:54;4.70;;;1.40;;
71941;SDS011;59997;53.300;-6.260;2022-08-21T11:00:28;4.63;;;1.70;;
71941;SDS011;59997;53.300;-6.260;2022-08-21T11:03:05;8.50;;;1.60;;
71941;SDS011;59997;53.300;-6.260;2022-08-21T11:08:35;4.97;;;1.30;;
71941;SDS011;59997;53.300;-6.260;2022-08-21T11:11:06;6.15;;;1.75;;
71941;SDS011;59997;53.300;-6.260;2022-08-21T11:16:23;6.60;;;2.00;;
71941;SDS011;59997;53.300;-6.260;2022-08-21T11:22:33;5.78;;;1.65;;
71941;SDS011;59997;53.300;-6.260;2022-08-21T11:25:11;6.22;;;1.75;;
71941;SDS011;59997;53.300;-6.260;2022-08-21T11:27:55;6.30;;;1.50;;
71941;SDS011;59997;53.300;-6.260;2022-08-21T11:30:31;4.97;;;1.60;;
71941;SDS011;59997;53.300;-6.260;2022-08-21T11:34:00;5.70;;;1.67;;
71941;SDS011;59997;53.300;-6.260;2022-08-21T11:36:33;6.97;;;1.55;;
71941;SDS011;59997;53.300;-6.260;2022-08-21T11:42:24;5.13;;;1.50;;
71941;SDS011;59997;53.300;-6.260;2022-08-21T11:50:55;6.00;;;1.50;;
71941;SDS011;59997;53.300;-6.260;2022-08-21T11:55:58;5.68;;;1.65;;
71941;SDS011;59997;53.300;-6.260;2022-08-21T11:58:39;5.35;;;1.80;;
71941;SDS011;59997;53.300;-6.260;2022-08-21T12:01:12;5.57;;;1.70;;
71941;SDS011;59997;53.300;-6.260;2022-08-21T12:07:09;5.80;;;1.63;;
71941;SDS011;59997;53.300;-6.260;2022-08-21T12:09:51;4.80;;;1.63;;
71941;SDS011;59997;53.300;-6.260;2022-08-21T12:12:28;5.70;;;1.42;;
71941;SDS011;59997;53.300;-6.260;2022-08-21T12:15:17;5.07;;;1.70;;
71941;SDS011;59997;53.300;-6.260;2022-08-21T12:17:51;5.53;;;1.52;;
71941;SDS011;59997;53.300;-6.260;2022-08-21T12:25:47;5.30;;;1.92;;
71941;SDS011;59997;53.300;-6.260;2022-08-21T12:28:25;5.77;;;1.87;;
71941;SDS011;59997;53.300;-6.260;2022-08-21T12:30:53;7.55;;;2.08;;
71941;SDS011;59997;53.300;-6.260;2022-08-21T12:33:38;5.00;;;2.13;;
71941;SDS011;59997;53.300;-6.260;2022-08-21T12:36:07;6.65;;;1.60;;
71941;SDS011;59997;53.300;-6.260;2022-08-21T12:38:57;6.85;;;2.30;;
71941;SDS011;59997;53.300;-6.260;2022-08-21T12:41:34;6.30;;;1.38;;
71941;SDS011;59997;53.300;-6.260;2022-08-21T12:44:10;6.07;;;1.55;;
71941;SDS011;59997;53.300;-6.260;2022-08-21T12:46:43;6.03;;;1.43;;
71941;SDS011;59997;53.300;-6.260;2022-08-21T12:52:11;6.53;;;1.70;;
71941;SDS011;59997;53.300;-6.260;2022-08-21T12:54:42;4.70;;;1.40;;
71941;SDS011;59997;53.300;-6.260;2022-08-21T12:57:44;5.93;;;1.70;;
71941;SDS011;59997;53.300;-6.260;2022-08-21T13:00:06;4.80;;;1.50;;
71941;SDS011;59997;53.300;-6.260;2022-08-21T13:02:38;6.13;;;1.50;;
71941;SDS011;59997;53.300;-6.260;2022-08-21T13:05:11;6.03;;;1.38;;
71941;SDS011;59997;53.300;-6.260;2022-08-21T13:07:43;5.25;;;1.60;;
71941;SDS011;59997;53.300;-6.260;2022-08-21T13:10:26;6.10;;;1.58;;
71941;SDS011;59997;53.300;-6.260;2022-08-21T13:12:57;5.47;;;1.13;;
71941;SDS011;59997;53.300;-6.260;2022-08-21T13:15:44;6.65;;;1.25;;
71941;SDS011;59997;53.300;-6.260;2022-08-21T13:18:18;6.43;;;1.25;;
71941;SDS011;59997;53.300;-6.260;2022-08-21T13:21:02;6.65;;;1.77;;
71941;SDS011;59997;53.300;-6.260;2022-08-21T13:23:31;8.67;;;1.50;;
71941;SDS011;59997;53.300;-6.260;2022-08-21T13:25:58;5.75;;;1.48;;
71941;SDS011;59997;53.300;-6.260;2022-08-21T13:28:25;7.70;;;1.60;;
71941;SDS011;59997;53.300;-6.260;2022-08-21T13:30:59;6.43;;;1.58;;
71941;SDS011;59997;53.300;-6.260;2022-08-21T13:33:27;6.07;;;1.60;;
71941;SDS011;59997;53.300;-6.260;2022-08-21T13:36:03;6.17;;;1.30;;
71941;SDS011;59997;53.300;-6.260;2022-08-21T13:38:36;5.90;;;1.40;;
71941;SDS011;59997;53.300;-6.260;2022-08-21T13:41:11;5.10;;;1.58;;
71941;SDS011;59997;53.300;-6.260;2022-08-21T13:44:03;5.38;;;1.48;;
71941;SDS011;59997;53.300;-6.260;2022-08-21T13:46:38;5.55;;;1.40;;
71941;SDS011;59997;53.300;-6.260;2022-08-21T13:49:05;7.73;;;0.93;;
71941;SDS011;59997;53.300;-6.260;2022-08-21T13:51:32;5.13;;;1.17;;
71941;SDS011;59997;53.300;-6.260;2022-08-21T13:53:59;8.07;;;1.20;;
71941;SDS011;59997;53.300;-6.260;2022-08-21T13:56:26;6.27;;;0.90;;
71941;SDS011;59997;53.300;-6.260;2022-08-21T13:58:55;7.40;;;1.20;;
71941;SDS011;59997;53.300;-6.260;2022-08-21T14:04:39;4.82;;;0.80;;
71941;SDS011;59997;53.300;-6.260;2022-08-21T14:06:48;6.27;;;0.90;;
71941;SDS011;59997;53.300;-6.260;2022-08-21T14:09:34;4.30;;;0.90;;
71941;SDS011;59997;53.300;-6.260;2022-08-21T14:12:16;4.95;;;0.90;;
71941;SDS011;59997;53.300;-6.260;2022-08-21T14:14:44;7.38;;;0.90;;
71941;SDS011;59997;53.300;-6.260;2022-08-21T14:17:25;5.80;;;0.80;;
71941;SDS011;59997;53.300;-6.260;2022-08-21T14:19:54;5.23;;;0.70;;
71941;SDS011;59997;53.300;-6.260;2022-08-21T14:25:27;6.60;;;1.00;;
71941;SDS011;59997;53.300;-6.260;2022-08-21T14:28:26;6.00;;;0.93;;
71941;SDS011;59997;53.300;-6.260;2022-08-21T14:31:14;4.95;;;1.10;;
71941;SDS011;59997;53.300;-6.260;2022-08-21T14:33:45;4.20;;;0.90;;
71941;SDS011;59997;53.300;-6.260;2022-08-21T14:36:12;5.97;;;0.90;;
71941;SDS011;59997;53.300;-6.260;2022-08-21T14:38:38;6.93;;;1.23;;
71941;SDS011;59997;53.300;-6.260;2022-08-21T14:41:15;6.90;;;0.70;;
71941;SDS011;59997;53.300;-6.260;2022-08-21T14:43:49;4.20;;;0.80;;
71941;SDS011;59997;53.300;-6.260;2022-08-21T14:46:24;7.88;;;0.90;;
71941;SDS011;59997;53.300;-6.260;2022-08-21T14:48:52;5.10;;;0.68;;
71941;SDS011;59997;53.300;-6.260;2022-08-21T14:51:18;5.63;;;1.03;;
71941;SDS011;59997;53.300;-6.260;2022-08-21T14:53:45;4.78;;;0.60;;
71941;SDS011;59997;53.300;-6.260;2022-08-21T14:56:12;4.63;;;0.80;;
71941;SDS011;59997;53.300;-6.260;2022-08-21T14:58:40;5.07;;;0.77;;
71941;SDS011;59997;53.300;-6.260;2022-08-21T15:01:08;5.57;;;0.83;;
71941;SDS011;59997;53.300;-6.260;2022-08-21T15:03:36;4.30;;;0.60;;
71941;SDS011;59997;53.300;-6.260;2022-08-21T15:06:02;6.22;;;0.60;;
71941;SDS011;59997;53.300;-6.260;2022-08-21T15:08:29;7.35;;;0.82;;
71941;SDS011;59997;53.300;-6.260;2022-08-21T15:10:55;4.23;;;0.73;;
71941;SDS011;59997;53.300;-6.260;2022-08-21T15:13:22;3.88;;;0.50;;
71941;SDS011;59997;53.300;-6.260;2022-08-21T15:15:49;5.88;;;0.88;;
71941;SDS011;59997;53.300;-6.260;2022-08-21T15:18:17;8.27;;;0.88;;
71941;SDS011;59997;53.300;-6.260;2022-08-21T15:20:44;5.43;;;0.90;;
71941;SDS011;59997;53.300;-6.260;2022-08-21T15:23:10;4.40;;;0.90;;
71941;SDS011;59997;53.300;-6.260;2022-08-21T15:25:36;4.22;;;0.75;;
71941;SDS011;59997;53.300;-6.260;2022-08-21T15:28:06;5.30;;;0.97;;
71941;SDS011;59997;53.300;-6.260;2022-08-21T15:30:32;3.70;;;0.70;;
71941;SDS011;59997;53.300;-6.260;2022-08-21T15:32:59;4.20;;;0.80;;
71941;SDS011;59997;53.300;-6.260;2022-08-21T15:35:26;4.13;;;0.70;;
71941;SDS011;59997;53.300;-6.260;2022-08-21T15:37:52;5.78;;;1.05;;
71941;SDS011;59997;53.300;-6.260;2022-08-21T15:40:18;4.17;;;0.73;;
71941;SDS011;59997;53.300;-6.260;2022-08-21T15:42:43;4.72;;;0.90;;
71941;SDS011;59997;53.300;-6.260;2022-08-21T15:45:11;6.13;;;0.80;;
71941;SDS011;59997;53.300;-6.260;2022-08-21T15:47:39;4.80;;;0.90;;
71941;SDS011;59997;53.300;-6.260;2022-08-21T15:50:09;5.90;;;1.17;;
71941;SDS011;59997;53.300;-6.260;2022-08-21T15:52:36;6.18;;;1.05;;
71941;SDS011;59997;53.300;-6.260;2022-08-21T15:55:03;6.07;;;1.30;;
71941;SDS011;59997;53.300;-6.260;2022-08-21T15:57:32;5.10;;;0.77;;
71941;SDS011;59997;53.300;-6.260;2022-08-21T16:00:00;5.33;;;0.73;;
71941;SDS011;59997;53.300;-6.260;2022-08-21T16:02:39;4.47;;;0.60;;
71941;SDS011;59997;53.300;-6.260;2022-08-21T16:05:09;6.00;;;0.80;;
71941;SDS011;59997;53.300;-6.260;2022-08-21T16:07:37;3.28;;;0.55;;
71941;SDS011;59997;53.300;-6.260;2022-08-21T16:10:03;5.93;;;0.70;;
71941;SDS011;59997;53.300;-6.260;2022-08-21T16:12:30;4.13;;;0.60;;
71941;SDS011;59997;53.300;-6.260;2022-08-21T16:15:01;6.38;;;0.70;;
71941;SDS011;59997;53.300;-6.260;2022-08-21T16:17:33;3.67;;;0.50;;